.
WxDataArchive / Data Records for 2007-11-02
2007-11-01 November 2007 2007-11-03

Data Records for Friday, 02 November 2007

Time	Temp	Chill	HIndex	Humid	Dewpt	 Wind 	HiWind	WindDir	Rain 	Barom 
-----	----	-----	------	-----	-----	------	------	-------	-----	----- 
00:00	31.3	31.3	31.3	90	28.7	0	0	---	0.00	30.255 
00:05	31.2	31.2	31.2	90	28.6	0	0	---	0.00	30.252 
00:10	31.2	31.2	31.2	90	28.6	0	0	---	0.00	30.250 
00:15	31.0	31.0	31.0	90	28.4	0	0	---	0.00	30.250 
00:20	31.0	31.0	31.0	90	28.4	0	0	---	0.00	30.249 
00:25	30.9	30.9	30.9	90	28.3	0	0	---	0.00	30.250 
00:30	30.9	30.9	30.9	90	28.3	0	0	---	0.00	30.251 
00:35	30.7	30.7	30.7	90	28.1	0	0	---	0.00	30.251 
00:40	30.7	30.7	30.7	90	28.1	0	0	---	0.00	30.250 
00:45	30.7	30.7	30.7	90	28.1	0	0	---	0.00	30.250 
00:50	30.7	30.7	30.7	90	28.1	0	0	---	0.00	30.249 
00:55	30.6	30.6	30.6	90	28.0	0	0	---	0.00	30.249 
01:00	30.4	30.4	30.4	90	27.8	0	0	---	0.00	30.248 
01:05	30.3	30.3	30.3	90	27.7	0	0	---	0.00	30.248 
01:10	30.3	30.3	30.3	91	28.0	0	0	---	0.00	30.248 
01:15	30.1	30.1	30.1	91	27.8	0	0	---	0.00	30.247 
01:20	30.1	30.1	30.1	91	27.8	0	0	---	0.00	30.249 
01:25	30.1	30.1	30.1	91	27.8	0	0	---	0.00	30.248 
01:30	30.0	30.0	30.0	91	27.7	0	0	---	0.00	30.249 
01:35	30.0	30.0	30.0	91	27.7	0	0	---	0.00	30.249 
01:40	30.0	30.0	30.0	91	27.7	0	0	---	0.00	30.249 
01:45	29.8	29.8	29.8	91	27.5	0	0	---	0.00	30.249 
01:50	29.8	29.8	29.8	91	27.5	0	0	---	0.00	30.250 
01:55	29.7	29.7	29.7	92	27.7	0	0	---	0.00	30.251 
02:00	29.7	29.7	29.7	92	27.7	0	0	---	0.00	30.253 
02:05	29.5	29.5	29.5	92	27.5	0	0	---	0.00	30.250 
02:10	29.5	29.5	29.5	92	27.5	0	0	---	0.00	30.249 
02:15	29.4	29.4	29.4	92	27.4	0	0	---	0.00	30.249 
02:20	29.4	29.4	29.4	92	27.4	0	0	---	0.00	30.251 
02:25	29.3	29.3	29.3	92	27.3	0	0	---	0.00	30.252 
02:30	29.3	29.3	29.3	92	27.3	0	0	---	0.00	30.253 
02:35	29.3	29.3	29.3	92	27.3	0	0	---	0.00	30.255 
02:40	29.3	29.3	29.3	92	27.3	0	0	---	0.00	30.255 
02:45	29.1	29.1	29.1	92	27.1	0	0	---	0.00	30.250 
02:50	29.1	29.1	29.1	92	27.1	0	0	---	0.00	30.250 
02:55	29.0	29.0	29.0	92	27.0	0	0	---	0.00	30.249 
03:00	29.0	29.0	29.0	92	27.0	0	0	---	0.00	30.250 
03:05	29.0	29.0	29.0	92	27.0	0	0	---	0.00	30.251 
03:10	29.0	29.0	29.0	92	27.0	0	0	---	0.00	30.251 
03:15	29.0	29.0	29.0	93	27.2	0	0	---	0.00	30.251 
03:20	28.8	28.8	28.8	93	27.0	0	0	---	0.00	30.251 
03:25	28.8	28.8	28.8	93	27.0	0	0	---	0.00	30.252 
03:30	28.8	28.8	28.8	93	27.0	0	0	---	0.00	30.250 
03:35	28.8	28.8	28.8	93	27.0	0	0	---	0.00	30.250 
03:40	28.7	28.7	28.7	93	26.9	0	0	---	0.00	30.249 
03:45	28.7	28.7	28.7	93	26.9	0	0	---	0.00	30.248 
03:50	28.7	28.7	28.7	93	26.9	0	0	---	0.00	30.249 
03:55	28.7	28.7	28.7	93	26.9	0	0	---	0.00	30.250 
04:00	28.7	28.7	28.7	93	26.9	0	0	---	0.00	30.250 
04:05	28.7	28.7	28.7	93	26.9	0	0	---	0.00	30.251 
04:10	28.5	28.5	28.5	93	26.7	0	0	---	0.00	30.251 
04:15	28.5	28.5	28.5	93	26.7	0	0	---	0.00	30.251 
04:20	28.5	28.5	28.5	93	26.7	0	0	---	0.00	30.252 
04:25	28.5	28.5	28.5	93	26.7	0	0	---	0.00	30.252 
04:30	28.5	28.5	28.5	93	26.7	0	0	---	0.00	30.254 
04:35	28.5	28.5	28.5	93	26.7	0	0	---	0.00	30.256 
04:40	28.5	28.5	28.5	94	27.0	0	0	---	0.00	30.257 
04:45	28.4	28.4	28.4	94	26.9	0	0	---	0.00	30.260 
04:50	28.4	28.4	28.4	94	26.9	0	0	---	0.00	30.260 
04:55	28.4	28.4	28.4	94	26.9	0	0	---	0.00	30.262 
05:00	28.4	28.4	28.4	94	26.9	0	0	---	0.00	30.263 
05:05	28.4	28.4	28.4	94	26.9	0	0	---	0.00	30.270 
05:10	28.2	28.2	28.2	94	26.7	0	0	---	0.00	30.271 
05:15	28.2	28.2	28.2	94	26.7	0	0	---	0.00	30.272 
05:20	28.2	28.2	28.2	94	26.7	0	0	---	0.00	30.272 
05:25	28.2	28.2	28.2	94	26.7	0	0	---	0.00	30.271 
05:30	28.2	28.2	28.2	94	26.7	0	0	---	0.00	30.272 
05:35	28.4	28.4	28.4	94	26.9	0	0	---	0.00	30.271 
05:40	28.4	28.4	28.4	94	26.9	0	0	---	0.00	30.273 
05:45	28.4	28.4	28.4	94	26.9	0	1	315	0.00	30.273 
05:50	28.5	28.5	28.5	94	27.0	0	1	---	0.00	30.272 
05:55	28.5	28.5	28.5	94	27.0	0	0	---	0.00	30.272 
06:00	28.4	28.4	28.4	94	26.9	0	0	---	0.00	30.273 
06:05	28.4	28.4	28.4	94	26.9	0	0	---	0.00	30.279 
06:10	28.2	28.2	28.2	94	26.7	0	0	---	0.00	30.279 
06:15	28.2	28.2	28.2	94	26.7	0	0	---	0.00	30.281 
06:20	28.2	28.2	28.2	94	26.7	0	0	---	0.00	30.281 
06:25	28.4	28.4	28.4	94	26.9	0	0	---	0.00	30.283 
06:30	28.4	28.4	28.4	94	26.9	0	1	315	0.00	30.281 
06:35	28.4	28.4	28.4	94	26.9	0	0	---	0.00	30.280 
06:40	28.4	28.4	28.4	94	26.9	0	0	---	0.00	30.281 
06:45	28.4	28.4	28.4	94	26.9	0	0	---	0.00	30.282 
06:50	28.5	28.5	28.5	94	27.0	0	1	315	0.00	30.279 
06:55	28.5	28.5	28.5	94	27.0	0	0	---	0.00	30.279 
07:00	28.5	28.5	28.5	94	27.0	0	0	---	0.00	30.283 
07:05	28.5	28.5	28.5	94	27.0	0	0	---	0.00	30.288 
07:10	28.4	28.4	28.4	94	26.9	0	1	315	0.00	30.290 
07:15	28.5	28.5	28.5	94	27.0	0	0	---	0.00	30.292 
07:20	28.5	28.5	28.5	94	27.0	0	0	---	0.00	30.294 
07:25	28.5	28.5	28.5	94	27.0	0	0	---	0.00	30.293 
07:30	28.5	28.5	28.5	94	27.0	0	0	---	0.00	30.293 
07:35	28.5	28.5	28.5	94	27.0	0	0	---	0.00	30.295 
07:40	28.7	28.7	28.7	94	27.2	0	0	---	0.00	30.295 
07:45	28.7	28.7	28.7	94	27.2	0	0	---	0.00	30.297 
07:50	28.8	28.8	28.8	95	27.6	0	0	---	0.00	30.296 
07:55	29.0	29.0	29.0	95	27.8	0	0	---	0.00	30.295 
08:00	29.5	29.5	29.5	95	28.2	0	1	315	0.00	30.295 
08:05	30.7	30.7	30.7	96	29.7	0	1	315	0.00	30.297 
08:10	31.3	31.3	31.3	96	30.3	0	1	315	0.00	30.296 
08:15	32.2	32.2	32.2	96	31.2	0	1	315	0.00	30.298 
08:20	32.9	32.9	32.9	96	31.9	0	1	315	0.00	30.297 
08:25	33.7	33.7	33.7	95	32.4	0	2	315	0.00	30.298 
08:30	34.4	34.4	34.4	92	32.3	0	2	0	0.00	30.303 
08:35	35.2	35.2	35.2	89	32.3	0	1	0	0.00	30.302 
08:40	36.0	36.0	36.0	86	32.2	0	1	0	0.00	30.303 
08:45	36.9	36.9	36.9	83	32.2	0	2	0	0.00	30.302 
08:50	38.0	38.0	38.0	79	32.1	0	2	0	0.00	30.303 
08:55	38.9	38.9	38.9	76	32.0	0	1	0	0.00	30.303 
09:00	39.9	39.9	39.9	74	32.3	0	1	0	0.00	30.301 
09:05	40.6	40.6	40.6	72	32.3	1	3	0	0.00	30.302 
09:10	41.3	41.3	41.3	70	32.3	0	2	0	0.00	30.302 
09:15	41.8	41.8	41.8	68	32.0	1	4	22	0.00	30.301 
09:20	42.3	42.3	42.3	69	32.9	0	2	112	0.00	30.301 
09:25	43.1	43.1	43.1	67	32.9	0	1	112	0.00	30.301 
09:30	43.8	43.8	43.8	66	33.2	0	2	112	0.00	30.300 
09:35	44.2	44.2	44.2	65	33.2	0	1	112	0.00	30.300 
09:40	44.8	44.8	44.8	64	33.4	0	2	112	0.00	30.300 
09:45	45.1	45.1	45.1	63	33.3	0	2	112	0.00	30.300 
09:50	45.8	45.8	45.8	63	33.9	0	1	112	0.00	30.297 
09:55	46.4	46.4	46.4	63	34.5	0	2	112	0.00	30.298 
10:00	46.5	46.5	46.5	61	33.8	2	5	90	0.00	30.299 
10:05	47.0	47.0	47.0	61	34.3	0	3	90	0.00	30.300 
10:10	47.6	47.6	47.6	60	34.4	1	3	158	0.00	30.299 
10:15	47.9	47.9	47.9	58	33.8	1	4	90	0.00	30.297 
10:20	48.5	48.5	48.5	59	34.8	1	3	112	0.00	30.297 
10:25	48.8	48.8	48.8	56	33.8	1	4	112	0.00	30.297 
10:30	49.1	49.1	49.1	54	33.2	1	4	90	0.00	30.296 
10:35	49.5	49.5	49.5	56	34.5	1	3	90	0.00	30.296 
10:40	49.9	49.9	49.9	52	33.0	1	3	112	0.00	30.294 
10:45	50.2	50.2	50.2	53	33.7	1	4	45	0.00	30.294 
10:50	49.8	49.8	49.8	53	33.4	2	6	270	0.00	30.293 
10:55	49.9	49.9	49.9	50	32.0	1	3	90	0.00	30.291 
11:00	50.1	50.1	50.1	50	32.2	1	5	90	0.00	30.291 
11:05	50.2	50.2	50.2	50	32.3	2	5	90	0.00	30.292 
11:10	50.4	50.4	50.4	51	33.0	1	4	112	0.00	30.290 
11:15	50.7	50.7	50.7	55	35.1	1	3	135	0.00	30.288 
11:20	50.8	50.8	50.8	53	34.3	0	3	292	0.00	30.289 
11:25	50.8	50.8	50.8	50	32.8	1	4	248	0.00	30.287 
11:30	51.0	51.0	51.0	48	32.0	0	2	270	0.00	30.284 
11:35	51.1	51.1	51.1	48	32.1	1	4	248	0.00	30.283 
11:40	51.3	51.3	51.3	48	32.3	2	5	90	0.00	30.282 
11:45	51.3	51.3	51.3	49	32.8	1	3	112	0.00	30.280 
11:50	51.4	51.4	51.4	50	33.4	0	2	270	0.00	30.275 
11:55	51.6	51.6	51.6	48	32.6	0	2	270	0.00	30.270 
12:00	51.9	51.9	51.9	47	32.3	1	3	112	0.00	30.266 
12:05	52.0	52.0	52.0	47	32.4	1	2	135	0.00	30.265 
12:10	52.0	52.0	52.0	46	31.9	1	4	135	0.00	30.263 
12:15	52.0	52.0	52.0	48	32.9	1	4	90	0.00	30.260 
12:20	52.2	52.2	52.2	49	33.6	1	4	112	0.00	30.252 
12:25	52.3	52.3	52.3	46	32.1	1	4	112	0.00	30.249 
12:30	52.5	52.5	52.5	46	32.3	1	4	112	0.00	30.243 
12:35	52.8	52.8	52.8	44	31.5	1	3	112	0.00	30.237 
12:40	52.9	52.9	52.9	46	32.7	0	2	112	0.00	30.232 
12:45	53.1	53.1	53.1	46	32.9	1	4	248	0.00	30.231 
12:50	53.1	53.1	53.1	44	31.8	1	3	90	0.00	30.226 
12:55	53.2	53.2	53.2	44	31.9	2	5	90	0.00	30.221 
13:00	53.2	53.2	53.2	43	31.3	1	5	112	0.00	30.219 
13:05	53.1	53.1	53.1	44	31.8	2	5	90	0.00	30.217 
13:10	53.1	53.1	53.1	45	32.3	0	2	90	0.00	30.217 
13:15	53.2	53.2	53.2	44	31.9	2	6	90	0.00	30.214 
13:20	53.3	53.3	53.3	43	31.4	1	5	135	0.00	30.208 
13:25	53.6	53.6	53.6	43	31.7	1	4	112	0.00	30.200 
13:30	53.9	53.9	53.9	42	31.3	2	6	112	0.00	30.196 
13:35	54.1	54.1	54.1	41	30.9	1	3	90	0.00	30.198 
13:40	54.2	54.2	54.2	42	31.6	1	3	270	0.00	30.199 
13:45	54.2	54.2	54.2	44	32.8	1	3	270	0.00	30.200 
13:50	54.4	54.4	54.4	42	31.8	0	2	0	0.00	30.199 
13:55	54.5	54.5	54.5	41	31.3	1	3	90	0.00	30.200 
14:00	54.5	54.5	54.5	41	31.3	1	4	112	0.00	30.198 
14:05	54.7	54.7	54.7	41	31.5	1	5	112	0.00	30.197 
14:10	54.8	54.8	54.8	41	31.6	0	2	112	0.00	30.195 
14:15	54.8	54.8	54.8	39	30.3	1	3	112	0.00	30.192 
14:20	55.0	55.0	55.0	40	31.1	1	3	90	0.00	30.191 
14:25	55.0	55.0	55.0	40	31.1	0	2	90	0.00	30.189 
14:30	55.1	55.1	55.1	39	30.6	0	2	90	0.00	30.183 
14:35	55.3	55.3	55.3	40	31.4	1	4	135	0.00	30.184 
14:40	55.4	55.4	55.4	40	31.5	0	1	225	0.00	30.183 
14:45	55.6	55.6	55.6	39	31.0	0	3	225	0.00	30.182 
14:50	55.6	55.6	55.6	38	30.4	1	6	112	0.00	30.180 
14:55	55.6	55.6	55.6	35	28.4	1	3	112	0.00	30.179 
15:00	55.7	55.7	55.7	40	31.8	1	3	112	0.00	30.178 
15:05	56.2	56.2	56.2	38	30.9	1	3	248	0.00	30.179 
15:10	56.5	56.5	56.5	37	30.5	0	2	248	0.00	30.177 
15:15	56.6	56.6	56.6	38	31.3	0	1	248	0.00	30.174 
15:20	56.6	56.6	56.6	39	31.9	0	2	248	0.00	30.171 
15:25	56.6	56.6	56.6	40	32.6	1	2	248	0.00	30.177 
15:30	56.6	56.6	56.6	37	30.6	0	2	248	0.00	30.180 
15:35	56.2	56.2	56.2	37	30.3	0	3	248	0.00	30.182 
15:40	55.7	55.7	55.7	38	30.5	1	2	248	0.00	30.180 
15:45	55.4	55.4	55.4	39	30.9	1	3	180	0.00	30.181 
15:50	55.4	55.4	55.4	38	30.2	0	2	270	0.00	30.181 
15:55	55.6	55.6	55.6	37	29.7	0	1	248	0.00	30.181 
16:00	55.4	55.4	55.4	37	29.6	0	1	248	0.00	30.183 
16:05	55.6	55.6	55.6	37	29.7	0	2	248	0.00	30.183 
16:10	55.6	55.6	55.6	39	31.0	0	1	248	0.00	30.182 
16:15	55.4	55.4	55.4	39	30.9	0	3	248	0.00	30.184 
16:20	55.3	55.3	55.3	38	30.1	0	1	248	0.00	30.179 
16:25	55.1	55.1	55.1	38	30.0	0	0	---	0.00	30.178 
16:30	55.0	55.0	55.0	38	29.9	0	1	248	0.00	30.179 
16:35	54.8	54.8	54.8	39	30.3	0	2	248	0.00	30.178 
16:40	54.7	54.7	54.7	40	30.9	0	1	248	0.00	30.181 
16:45	54.5	54.5	54.5	40	30.7	0	1	248	0.00	30.174 
16:50	54.4	54.4	54.4	39	30.0	0	1	248	0.00	30.172 
16:55	54.2	54.2	54.2	40	30.4	0	1	248	0.00	30.170 
17:00	53.9	53.9	53.9	40	30.1	0	1	248	0.00	30.170 
17:05	53.6	53.6	53.6	43	31.7	0	0	---	0.00	30.174 
17:10	53.2	53.2	53.2	43	31.3	0	0	---	0.00	30.176 
17:15	52.8	52.8	52.8	43	30.9	0	0	---	0.00	30.176 
17:20	52.2	52.2	52.2	44	31.0	0	0	---	0.00	30.177 
17:25	51.6	51.6	51.6	47	32.0	0	0	---	0.00	30.174 
17:30	51.0	51.0	51.0	50	33.0	0	0	---	0.00	30.176 
17:35	50.4	50.4	50.4	50	32.5	0	0	---	0.00	30.178 
17:40	49.6	49.6	49.6	53	33.2	0	0	---	0.00	30.178 
17:45	48.9	48.9	48.9	54	33.0	0	0	---	0.00	30.181 
17:50	48.2	48.2	48.2	56	33.2	0	0	---	0.00	30.181 
17:55	47.6	47.6	47.6	57	33.1	0	0	---	0.00	30.180 
18:00	46.8	46.8	46.8	59	33.2	0	0	---	0.00	30.179 
18:05	46.1	46.1	46.1	60	33.0	0	0	---	0.00	30.178 
18:10	45.5	45.5	45.5	61	32.8	0	0	---	0.00	30.177 
18:15	45.1	45.1	45.1	62	32.9	0	0	---	0.00	30.177 
18:20	44.6	44.6	44.6	62	32.4	0	0	---	0.00	30.178 
18:25	44.1	44.1	44.1	63	32.3	0	0	---	0.00	30.183 
18:30	43.6	43.6	43.6	65	32.6	0	0	---	0.00	30.180 
18:35	43.3	43.3	43.3	66	32.7	0	0	---	0.00	30.180 
18:40	42.8	42.8	42.8	68	33.0	0	0	---	0.00	30.187 
18:45	42.3	42.3	42.3	68	32.5	0	0	---	0.00	30.190 
18:50	42.1	42.1	42.1	69	32.7	0	0	---	0.00	30.193 
18:55	41.8	41.8	41.8	69	32.4	0	0	---	0.00	30.193 
19:00	41.5	41.5	41.5	70	32.5	0	0	---	0.00	30.192 
19:05	41.1	41.1	41.1	72	32.8	0	0	---	0.00	30.193 
19:10	40.6	40.6	40.6	72	32.3	0	0	---	0.00	30.196 
19:15	40.3	40.3	40.3	73	32.3	0	0	---	0.00	30.197 
19:20	40.1	40.1	40.1	73	32.2	0	0	---	0.00	30.197 
19:25	39.9	39.9	39.9	74	32.3	0	0	---	0.00	30.198 
19:30	39.6	39.6	39.6	75	32.3	0	0	---	0.00	30.195 
19:35	39.5	39.5	39.5	77	32.9	0	0	---	0.00	30.191 
19:40	39.3	39.3	39.3	77	32.7	0	0	---	0.00	30.191 
19:45	39.2	39.2	39.2	77	32.6	0	0	---	0.00	30.192 
19:50	39.1	39.1	39.1	78	32.8	0	0	---	0.00	30.187 
19:55	39.1	39.1	39.1	78	32.8	0	0	---	0.00	30.188 
20:00	38.9	38.9	38.9	78	32.6	0	0	---	0.00	30.184 
20:05	38.8	38.8	38.8	79	32.9	0	0	---	0.00	30.175 
20:10	38.5	38.5	38.5	79	32.6	0	0	---	0.00	30.175 
20:15	38.3	38.3	38.3	79	32.4	0	0	---	0.00	30.174 
20:20	38.0	38.0	38.0	80	32.4	0	0	---	0.00	30.174 
20:25	37.8	37.8	37.8	80	32.2	0	0	---	0.00	30.173 
20:30	37.6	37.6	37.6	81	32.3	0	0	---	0.00	30.173 
20:35	37.3	37.3	37.3	81	32.0	0	0	---	0.00	30.174 
20:40	37.2	37.2	37.2	82	32.2	0	0	---	0.00	30.174 
20:45	37.0	37.0	37.0	82	32.0	0	0	---	0.00	30.175 
20:50	36.9	36.9	36.9	82	31.9	0	0	---	0.00	30.175 
20:55	36.8	36.8	36.8	83	32.1	0	0	---	0.00	30.175 
21:00	36.8	36.8	36.8	83	32.1	0	0	---	0.00	30.174 
21:05	36.6	36.6	36.6	84	32.2	0	0	---	0.00	30.168 
21:10	36.5	36.5	36.5	84	32.1	0	0	---	0.00	30.168 
21:15	36.5	36.5	36.5	84	32.1	0	0	---	0.00	30.168 
21:20	36.3	36.3	36.3	85	32.2	0	0	---	0.00	30.168 
21:25	36.2	36.2	36.2	85	32.1	0	0	---	0.00	30.169 
21:30	36.0	36.0	36.0	85	31.9	0	0	---	0.00	30.168 
21:35	35.9	35.9	35.9	85	31.8	0	0	---	0.00	30.167 
21:40	35.6	35.6	35.6	86	31.8	0	0	---	0.00	30.167 
21:45	35.5	35.5	35.5	86	31.7	0	0	---	0.00	30.166 
21:50	35.3	35.3	35.3	86	31.5	0	0	---	0.00	30.161 
21:55	35.2	35.2	35.2	86	31.4	0	0	---	0.00	30.158 
22:00	34.9	34.9	34.9	86	31.1	0	0	---	0.00	30.156 
22:05	34.7	34.7	34.7	87	31.2	0	0	---	0.00	30.155 
22:10	34.6	34.6	34.6	87	31.1	0	0	---	0.00	30.154 
22:15	34.4	34.4	34.4	88	31.2	0	0	---	0.00	30.154 
22:20	34.4	34.4	34.4	88	31.2	0	0	---	0.00	30.155 
22:25	34.3	34.3	34.3	88	31.1	0	0	---	0.00	30.155 
22:30	34.1	34.1	34.1	88	30.9	0	0	---	0.00	30.155 
22:35	34.0	34.0	34.0	88	30.8	0	0	---	0.00	30.153 
22:40	34.0	34.0	34.0	89	31.1	0	0	---	0.00	30.154 
22:45	33.8	33.8	33.8	89	30.9	0	0	---	0.00	30.153 
22:50	33.8	33.8	33.8	89	30.9	0	0	---	0.00	30.155 
22:55	33.8	33.8	33.8	89	30.9	0	0	---	0.00	30.154 
23:00	33.8	33.8	33.8	90	31.2	0	0	---	0.00	30.155 
23:05	33.8	33.8	33.8	90	31.2	0	0	---	0.00	30.153 
23:10	33.8	33.8	33.8	90	31.2	0	0	---	0.00	30.152 
23:15	33.8	33.8	33.8	90	31.2	0	0	---	0.00	30.152 
23:20	33.7	33.7	33.7	90	31.1	0	0	---	0.00	30.151 
23:25	33.5	33.5	33.5	90	30.9	0	0	---	0.00	30.151 
23:30	33.5	33.5	33.5	90	30.9	0	0	---	0.00	30.151 
23:35	33.5	33.5	33.5	90	30.9	0	0	---	0.00	30.150 
23:40	33.5	33.5	33.5	90	30.9	0	0	---	0.00	30.150 
23:45	33.4	33.4	33.4	90	30.8	0	0	---	0.00	30.152 
23:50	33.4	33.4	33.4	90	30.8	0	0	---	0.00	30.150 
23:55	33.2	33.2	33.2	90	30.6	0	0	---	0.00	30.146 

CoCoRaHS
IN-AL-39
A2 Web Hosting
Creative Commons License
GoDaddy
Look for:

loaded 2017-12-11 06:54:17 • last modified 2010-11-18 10:43:29
Privacy PolicyDisclaimer
• wx.awcolley.com is powered by PmWiki v.2002016 •
• all content (unless otherwise noted) © 2017 A W Colley